createdAt,value
2019-02-09T00:01:09.196Z,0.67
2019-02-09T00:04:17.129Z,0.63
2019-02-09T00:07:24.826Z,0.56
2019-02-09T00:10:32.216Z,0.53
2019-02-09T00:13:39.629Z,0.80
2019-02-09T00:16:47.142Z,0.49
2019-02-09T00:19:54.834Z,0.57
2019-02-09T00:23:02.940Z,0.61
2019-02-09T00:26:10.476Z,0.64
2019-02-09T00:29:18.639Z,0.60
2019-02-09T00:32:26.341Z,0.65
2019-02-09T00:35:34.289Z,0.59
2019-02-09T00:38:41.583Z,0.59
2019-02-09T00:41:49.119Z,0.69
2019-02-09T00:44:57.347Z,0.59
2019-02-09T00:48:04.971Z,0.60
2019-02-09T00:51:12.458Z,0.92
2019-02-09T00:54:19.963Z,0.86
2019-02-09T00:57:27.247Z,0.78
2019-02-09T01:00:34.869Z,0.76
2019-02-09T01:03:42.649Z,1.18
2019-02-09T01:06:50.039Z,0.99
2019-02-09T01:09:58.130Z,0.92
2019-02-09T01:13:06.553Z,0.97
2019-02-09T01:16:13.965Z,0.80
2019-02-09T01:19:21.607Z,0.22
2019-02-09T01:22:28.995Z,0.39
2019-02-09T01:25:36.619Z,0.29
2019-02-09T01:28:44.124Z,0.47
2019-02-09T01:31:52.023Z,0.24
2019-02-09T01:34:59.525Z,0.11
2019-02-09T01:38:07.022Z,0.28
2019-02-09T01:41:14.533Z,0.21
2019-02-09T01:44:22.048Z,0.22
2019-02-09T01:47:29.715Z,0.61
2019-02-09T01:50:37.107Z,0.25
2019-02-09T01:53:44.515Z,0.56
2019-02-09T01:56:52.037Z,0.16
2019-02-09T01:59:59.359Z,0.09
2019-02-09T02:03:07.104Z,0.30
2019-02-09T02:06:14.786Z,-0.09
2019-02-09T02:09:22.384Z,-0.20
2019-02-09T02:12:29.932Z,-0.35
2019-02-09T02:15:39.010Z,-0.45
2019-02-09T02:18:46.428Z,-0.28
2019-02-09T02:21:53.925Z,-0.10
2019-02-09T02:25:01.769Z,-0.24
2019-02-09T02:28:09.277Z,-0.57
2019-02-09T02:31:16.999Z,-0.68
2019-02-09T02:34:25.158Z,-0.87
2019-02-09T02:37:32.482Z,-0.81
2019-02-09T02:40:40.015Z,-0.72
2019-02-09T02:43:47.927Z,-0.85
2019-02-09T02:46:55.220Z,-0.86
2019-02-09T02:50:04.104Z,-0.83
2019-02-09T02:53:11.437Z,-0.82
2019-02-09T02:56:18.818Z,-0.80
2019-02-09T02:59:26.505Z,-1.01
2019-02-09T03:02:33.775Z,-0.78
2019-02-09T03:05:41.162Z,-0.76
2019-02-09T03:08:48.398Z,-0.91
2019-02-09T03:11:55.773Z,-0.79
2019-02-09T03:15:06.142Z,-0.75
2019-02-09T03:18:13.605Z,-0.59
2019-02-09T03:21:21.209Z,-0.54
2019-02-09T03:24:28.468Z,-0.51
2019-02-09T03:27:35.742Z,-0.28
2019-02-09T03:30:47.930Z,-0.33
2019-02-09T03:33:52.575Z,-0.19
2019-02-09T03:36:59.898Z,-0.09
2019-02-09T03:40:11.707Z,0.00
2019-02-09T03:43:19.076Z,-0.10
2019-02-09T03:46:26.354Z,-0.06
2019-02-09T03:49:33.729Z,0.03
2019-02-09T03:52:41.924Z,0.19
2019-02-09T03:55:49.637Z,0.30
2019-02-09T03:58:57.019Z,0.34
2019-02-09T04:02:04.764Z,0.44
2019-02-09T04:05:13.138Z,0.48
2019-02-09T04:08:20.515Z,0.53
2019-02-09T04:11:27.844Z,0.75
2019-02-09T04:14:35.322Z,0.55
2019-02-09T04:17:42.677Z,0.66
2019-02-09T04:20:49.943Z,0.63
2019-02-09T04:23:57.446Z,0.97
2019-02-09T04:27:04.920Z,0.84
2019-02-09T04:30:27.699Z,0.67
2019-02-09T04:33:35.165Z,0.85
2019-02-09T04:36:42.436Z,0.81
2019-02-09T04:39:50.159Z,0.75
2019-02-09T04:42:58.174Z,0.84
2019-02-09T04:46:05.479Z,0.88
2019-02-09T04:49:12.889Z,1.05
2019-02-09T04:52:20.055Z,1.00
2019-02-09T04:55:27.531Z,1.25
2019-02-09T04:58:35.026Z,1.06
2019-02-09T05:01:42.277Z,1.15
2019-02-09T05:04:49.481Z,1.15
2019-02-09T05:07:56.845Z,1.23
2019-02-09T05:11:04.399Z,1.40
2019-02-09T05:14:11.681Z,1.54
2019-02-09T05:17:19.051Z,1.64
2019-02-09T05:20:26.603Z,1.62
2019-02-09T05:23:34.367Z,1.77
2019-02-09T05:26:42.089Z,1.82
2019-02-09T05:29:49.825Z,1.83
2019-02-09T05:32:57.413Z,1.91
2019-02-09T05:36:04.894Z,1.90
2019-02-09T05:39:12.166Z,2.01
2019-02-09T05:42:19.321Z,2.09
2019-02-09T05:45:27.722Z,2.06
2019-02-09T05:48:35.108Z,2.09
2019-02-09T05:51:42.410Z,2.16
2019-02-09T05:54:49.577Z,2.44
2019-02-09T05:57:57.156Z,2.49
2019-02-09T06:01:04.957Z,2.52
2019-02-09T06:04:12.328Z,2.11
2019-02-09T06:07:19.842Z,2.19
2019-02-09T06:10:27.321Z,2.29
2019-02-09T06:13:34.836Z,2.27
2019-02-09T06:16:42.245Z,2.37
2019-02-09T06:19:49.638Z,2.80
2019-02-09T06:22:57.736Z,2.88
2019-02-09T06:26:05.440Z,3.96
2019-02-09T06:29:13.089Z,4.82
2019-02-09T06:32:20.536Z,5.04
2019-02-09T06:35:28.123Z,5.09
2019-02-09T06:38:35.829Z,5.30
2019-02-09T06:41:43.276Z,5.33
2019-02-09T06:44:50.654Z,5.43
2019-02-09T06:48:27.940Z,5.60
2019-02-09T06:51:35.217Z,5.36
2019-02-09T06:54:43.003Z,5.38
2019-02-09T06:57:50.906Z,5.37
2019-02-09T07:00:58.611Z,5.44
2019-02-09T07:04:06.311Z,5.47
2019-02-09T07:07:13.837Z,5.36
2019-02-09T07:10:22.723Z,5.23
2019-02-09T07:13:30.040Z,5.32
2019-02-09T07:16:37.423Z,5.22
2019-02-09T07:19:44.817Z,4.99
2019-02-09T07:22:52.799Z,5.26
2019-02-09T07:26:00.480Z,5.15
2019-02-09T07:29:07.985Z,5.06
2019-02-09T07:32:15.528Z,5.12
2019-02-09T07:35:23.015Z,5.08
2019-02-09T07:38:30.578Z,5.19
2019-02-09T07:41:38.519Z,5.34
2019-02-09T07:44:46.112Z,5.47
2019-02-09T07:47:53.643Z,5.41
2019-02-09T07:51:01.374Z,5.42
2019-02-09T07:54:08.758Z,5.30
2019-02-09T07:57:16.208Z,5.19
2019-02-09T08:00:26.252Z,5.43
2019-02-09T08:03:33.661Z,5.73
2019-02-09T08:06:41.353Z,5.86
2019-02-09T08:09:49.299Z,6.09
2019-02-09T08:12:57.358Z,6.21
2019-02-09T08:16:04.829Z,6.27
2019-02-09T08:19:12.790Z,6.12
2019-02-09T08:22:20.296Z,6.13
2019-02-09T08:25:30.610Z,6.24
2019-02-09T08:28:38.367Z,6.26
2019-02-09T08:31:45.845Z,6.27
2019-02-09T08:34:53.410Z,6.27
2019-02-09T08:38:01.298Z,6.24
2019-02-09T08:41:08.769Z,6.59
2019-02-09T08:44:16.425Z,6.77
2019-02-09T08:47:23.590Z,6.83
2019-02-09T08:50:34.556Z,6.83
2019-02-09T08:53:42.030Z,6.80
2019-02-09T08:56:49.690Z,6.65
2019-02-09T08:59:57.289Z,6.50
2019-02-09T09:03:05.318Z,6.52
2019-02-09T09:06:13.330Z,6.55
2019-02-09T09:09:21.326Z,6.58
2019-02-09T09:12:29.177Z,6.93
2019-02-09T09:15:43.260Z,7.21
2019-02-09T09:18:50.717Z,7.08
2019-02-09T09:21:58.468Z,6.87
2019-02-09T09:25:06.370Z,7.05
2019-02-09T09:28:13.817Z,7.28
2019-02-09T09:31:21.469Z,7.63
2019-02-09T09:34:29.121Z,7.81
2019-02-09T09:37:36.500Z,7.92
2019-02-09T09:40:44.501Z,7.88
2019-02-09T09:43:51.962Z,7.78
2019-02-09T09:46:59.571Z,7.98
2019-02-09T09:50:08.617Z,8.03
2019-02-09T09:53:16.329Z,8.02
2019-02-09T09:56:24.106Z,8.28
2019-02-09T09:59:31.768Z,8.30
2019-02-09T10:02:39.206Z,8.34
2019-02-09T10:05:47.416Z,8.20
2019-02-09T10:08:54.921Z,8.09
2019-02-09T10:12:02.623Z,7.92
2019-02-09T10:15:12.983Z,7.83
2019-02-09T10:18:20.528Z,7.68
2019-02-09T10:21:28.206Z,7.66
2019-02-09T10:24:35.928Z,7.61
2019-02-09T10:27:43.914Z,7.78
2019-02-09T10:30:51.293Z,7.93
2019-02-09T10:33:58.664Z,8.04
2019-02-09T10:37:06.087Z,8.20
2019-02-09T10:40:17.998Z,8.27
2019-02-09T10:43:25.873Z,8.27
2019-02-09T10:46:33.272Z,8.29
2019-02-09T10:49:40.957Z,8.53
2019-02-09T10:52:48.763Z,8.97
2019-02-09T10:55:56.410Z,9.30
2019-02-09T10:59:03.963Z,9.46
2019-02-09T11:02:11.646Z,9.14
2019-02-09T11:05:19.404Z,8.64
2019-02-09T11:08:26.903Z,8.54
2019-02-09T11:11:34.476Z,8.57
2019-02-09T11:14:41.845Z,9.01
2019-02-09T11:17:50.003Z,8.84
2019-02-09T11:20:57.813Z,8.66
2019-02-09T11:24:05.574Z,8.32
2019-02-09T11:27:13.451Z,8.39
2019-02-09T11:30:23.453Z,8.48
2019-02-09T11:33:31.697Z,8.13
2019-02-09T11:36:39.331Z,8.12
2019-02-09T11:39:46.605Z,7.97
2019-02-09T11:42:54.812Z,8.09
2019-02-09T11:46:02.366Z,8.20
2019-02-09T11:49:09.730Z,8.29
2019-02-09T11:52:17.225Z,8.45
2019-02-09T11:55:25.235Z,8.53
2019-02-09T11:58:32.663Z,8.60
2019-02-09T12:01:40.064Z,8.76
2019-02-09T12:04:47.920Z,8.64
2019-02-09T12:07:55.542Z,8.55
2019-02-09T12:11:03.053Z,8.61
2019-02-09T12:14:10.327Z,8.25
2019-02-09T12:17:17.704Z,8.24
2019-02-09T12:20:25.244Z,8.47
2019-02-09T12:23:33.204Z,8.47
2019-02-09T12:26:41.410Z,8.42
2019-02-09T12:29:49.015Z,8.45
2019-02-09T12:32:56.659Z,8.53
2019-02-09T12:36:05.816Z,8.51
2019-02-09T12:39:13.555Z,8.42
2019-02-09T12:42:21.060Z,8.50
2019-02-09T12:45:30.759Z,8.70
2019-02-09T12:48:38.501Z,8.81
2019-02-09T12:51:46.097Z,8.83
2019-02-09T12:54:53.881Z,8.86
2019-02-09T12:58:01.307Z,8.55
2019-02-09T13:01:09.138Z,8.46
2019-02-09T13:04:16.609Z,8.35
2019-02-09T13:07:24.226Z,8.35
2019-02-09T13:10:31.872Z,8.35
2019-02-09T13:13:39.305Z,8.23
2019-02-09T13:16:46.799Z,8.16
2019-02-09T13:19:54.299Z,8.18
2019-02-09T13:23:02.394Z,8.19
2019-02-09T13:26:09.777Z,8.17
2019-02-09T13:29:17.199Z,8.28
2019-02-09T13:32:24.924Z,8.09
2019-02-09T13:35:32.488Z,8.01
2019-02-09T13:38:40.008Z,8.00
2019-02-09T13:41:47.918Z,8.01
2019-02-09T13:44:55.348Z,8.02
2019-02-09T13:48:03.597Z,7.96
2019-02-09T13:51:11.194Z,8.00
2019-02-09T13:54:19.195Z,7.92
2019-02-09T13:57:26.708Z,7.96
2019-02-09T14:00:34.392Z,7.98
2019-02-09T14:03:46.658Z,8.00
2019-02-09T14:06:51.917Z,8.14
2019-02-09T14:09:59.464Z,8.03
2019-02-09T14:13:14.376Z,7.96
2019-02-09T14:16:17.110Z,7.99
2019-02-09T14:19:24.686Z,8.10
2019-02-09T14:22:32.284Z,8.17
2019-02-09T14:28:40.434Z,8.15
2019-02-09T14:31:47.916Z,8.03
2019-02-09T14:34:55.312Z,8.14
2019-02-09T14:38:03.783Z,8.23
2019-02-09T14:41:11.529Z,8.20
2019-02-09T14:44:18.899Z,8.10
2019-02-09T14:47:26.406Z,8.12
2019-02-09T14:50:34.316Z,7.96
2019-02-09T14:53:41.992Z,8.03
2019-02-09T14:56:49.900Z,8.02
2019-02-09T14:59:57.452Z,7.93
2019-02-09T15:03:06.488Z,8.02
2019-02-09T15:06:13.707Z,7.94
2019-02-09T15:09:21.203Z,7.90
2019-02-09T15:12:28.903Z,7.80
2019-02-09T15:15:53.396Z,7.80
2019-02-09T15:19:01.064Z,7.68
2019-02-09T15:22:08.702Z,7.73
2019-02-09T15:25:16.537Z,7.63
2019-02-09T15:28:24.356Z,7.66
2019-02-09T15:31:31.747Z,7.69
2019-02-09T15:34:39.142Z,7.64
2019-02-09T15:37:46.721Z,7.41
2019-02-09T15:40:54.550Z,7.56
2019-02-09T15:44:02.039Z,7.38
2019-02-09T15:47:09.737Z,7.33
2019-02-09T15:50:17.646Z,7.45
2019-02-09T15:53:26.512Z,7.43
2019-02-09T15:56:33.971Z,7.42
2019-02-09T15:59:41.674Z,7.47
2019-02-09T16:02:50.338Z,7.46
2019-02-09T16:05:59.795Z,7.41
2019-02-09T16:09:08.353Z,7.16
2019-02-09T16:12:15.853Z,7.03
2019-02-09T16:15:25.328Z,7.22
2019-02-09T16:18:33.515Z,7.24
2019-02-09T16:21:41.162Z,7.16
2019-02-09T16:24:48.610Z,7.01
2019-02-09T16:27:56.780Z,6.93
2019-02-09T16:31:04.853Z,7.20
2019-02-09T16:34:12.553Z,7.03
2019-02-09T16:37:20.275Z,6.95
2019-02-09T16:40:28.372Z,6.99
2019-02-09T16:43:36.282Z,6.97
2019-02-09T16:46:44.327Z,6.96
2019-02-09T16:49:51.767Z,6.83
2019-02-09T16:53:00.652Z,6.75
2019-02-09T16:56:08.131Z,6.81
2019-02-09T16:59:15.905Z,6.70
2019-02-09T17:02:23.571Z,6.84
2019-02-09T17:05:31.171Z,6.66
2019-02-09T17:08:38.408Z,6.60
2019-02-09T17:11:46.398Z,6.69
2019-02-09T17:14:54.472Z,6.61
2019-02-09T17:18:02.172Z,6.49
2019-02-09T17:21:09.886Z,6.55
2019-02-09T17:24:17.319Z,6.43
2019-02-09T17:27:24.624Z,6.34
2019-02-09T17:30:32.643Z,6.40
2019-02-09T17:33:39.922Z,6.37
2019-02-09T17:36:47.382Z,6.27
2019-02-09T17:39:54.813Z,6.31
2019-02-09T17:43:03.540Z,6.23
2019-02-09T17:46:14.635Z,6.20
2019-02-09T17:49:22.365Z,6.47
2019-02-09T17:52:29.870Z,6.48
2019-02-09T17:55:37.708Z,6.41
2019-02-09T17:58:45.024Z,6.55
2019-02-09T18:01:52.622Z,6.53
2019-02-09T18:05:00.206Z,6.42
2019-02-09T18:08:08.264Z,6.33
2019-02-09T18:11:15.899Z,6.12
2019-02-09T18:14:23.140Z,6.15
2019-02-09T18:17:30.640Z,6.31
2019-02-09T18:20:38.334Z,6.40
2019-02-09T18:23:46.056Z,6.39
2019-02-09T18:26:54.003Z,6.40
2019-02-09T18:30:01.594Z,6.42
2019-02-09T18:33:09.395Z,6.44
2019-02-09T18:36:17.176Z,6.44
2019-02-09T18:39:24.921Z,6.36
2019-02-09T18:42:32.563Z,6.30
2019-02-09T18:45:39.972Z,6.27
2019-02-09T18:48:48.448Z,6.40
2019-02-09T18:51:56.020Z,6.61
2019-02-09T18:55:04.700Z,6.56
2019-02-09T18:58:12.292Z,6.57
2019-02-09T19:01:20.107Z,6.53
2019-02-09T19:04:28.107Z,6.58
2019-02-09T19:07:36.016Z,6.68
2019-02-09T19:10:43.524Z,6.43
2019-02-09T19:13:51.036Z,6.40
2019-02-09T19:16:58.774Z,6.50
2019-02-09T19:20:21.884Z,6.34
2019-02-09T19:23:29.403Z,6.17
2019-02-09T19:26:36.989Z,6.10
2019-02-09T19:29:44.476Z,6.34
2019-02-09T19:32:52.361Z,6.04
2019-02-09T19:36:00.172Z,6.06
2019-02-09T19:39:09.346Z,5.92
2019-02-09T19:42:16.801Z,6.30
2019-02-09T19:45:28.199Z,6.03
2019-02-09T19:48:35.704Z,5.95
2019-02-09T19:51:43.566Z,5.97
2019-02-09T19:54:51.253Z,6.03
2019-02-09T19:57:59.839Z,6.03
2019-02-09T20:01:07.742Z,5.78
2019-02-09T20:04:15.299Z,5.84
2019-02-09T20:07:22.849Z,5.99
2019-02-09T20:10:33.296Z,6.05
2019-02-09T20:13:40.943Z,6.13
2019-02-09T20:16:48.654Z,6.15
2019-02-09T20:19:56.287Z,5.94
2019-02-09T20:23:04.478Z,6.14
2019-02-09T20:26:11.973Z,6.01
2019-02-09T20:29:19.383Z,5.77
2019-02-09T20:32:26.890Z,5.55
2019-02-09T20:35:34.999Z,5.67
2019-02-09T20:38:42.890Z,5.80
2019-02-09T20:41:50.198Z,5.69
2019-02-09T20:44:57.629Z,5.47
2019-02-09T20:48:06.284Z,5.40
2019-02-09T20:51:13.705Z,5.61
2019-02-09T20:54:21.200Z,5.36
2019-02-09T20:57:29.292Z,5.37
2019-02-09T21:00:36.916Z,5.15
2019-02-09T21:03:44.396Z,5.23
2019-02-09T21:06:51.799Z,5.02
2019-02-09T21:10:00.008Z,5.00
2019-02-09T21:13:07.651Z,4.89
2019-02-09T21:16:15.110Z,5.13
2019-02-09T21:19:23.007Z,4.95
2019-02-09T21:22:30.798Z,4.75
2019-02-09T21:25:40.885Z,4.55
2019-02-09T21:28:48.556Z,4.55
2019-02-09T21:31:56.266Z,4.36
2019-02-09T21:35:05.892Z,4.24
2019-02-09T21:38:14.024Z,4.19
2019-02-09T21:41:21.523Z,4.15
2019-02-09T21:44:29.055Z,4.13
2019-02-09T21:47:36.913Z,4.07
2019-02-09T21:50:44.457Z,3.90
2019-02-09T21:53:52.112Z,3.91
2019-02-09T21:56:59.607Z,3.86
2019-02-09T22:00:22.807Z,3.78
2019-02-09T22:03:30.185Z,3.69
2019-02-09T22:06:37.708Z,3.81
2019-02-09T22:09:45.069Z,3.73
2019-02-09T22:12:53.061Z,3.66
2019-02-09T22:16:00.584Z,3.65
2019-02-09T22:19:07.994Z,3.62
2019-02-09T22:22:15.580Z,3.58
2019-02-09T22:25:23.777Z,3.51
2019-02-09T22:28:31.677Z,3.70
2019-02-09T22:31:38.961Z,3.93
2019-02-09T22:34:46.249Z,3.74
2019-02-09T22:37:54.130Z,3.76
2019-02-09T22:41:01.706Z,3.87
2019-02-09T22:44:09.408Z,3.92
2019-02-09T22:47:16.778Z,3.89
2019-02-09T22:50:30.700Z,3.82
2019-02-09T22:53:38.316Z,4.03
2019-02-09T22:56:45.895Z,3.95
2019-02-09T22:59:53.669Z,3.84
2019-02-09T23:03:01.594Z,3.78
2019-02-09T23:06:38.805Z,3.67
2019-02-09T23:09:46.491Z,3.71
2019-02-09T23:12:54.205Z,3.56
2019-02-09T23:16:01.998Z,3.59
2019-02-09T23:19:10.210Z,3.48
2019-02-09T23:22:17.805Z,3.55
2019-02-09T23:25:25.385Z,3.51
2019-02-09T23:28:32.728Z,3.46
2019-02-09T23:31:40.191Z,3.44
2019-02-09T23:34:47.460Z,3.41
2019-02-09T23:37:55.214Z,3.36
2019-02-09T23:41:02.893Z,3.40
2019-02-09T23:44:10.482Z,3.34
2019-02-09T23:47:18.081Z,3.41
2019-02-09T23:50:25.582Z,3.38
2019-02-09T23:53:32.813Z,3.45
2019-02-09T23:56:40.077Z,3.43
2019-02-09T23:59:47.278Z,3.45
